• Join FlightAware (Why Join?)
  • Login
  • US Flag 
09:07PM EDT


 

Airport Tracker/Info


-or-


 

Live Flight TrackerFlight Track Log ✈ EJA820 ✈ 17-Jun-2013 ✈ KSGF - KICT

Flight Track Log - Related Links

Times and Time Zones

All times are in EDT time to prevent confusion due to time zone crossing. See the EJA820 flight status page for this flight to view local times or setup timezone preferences in your user account.

Time Position Orientation Groundspeed Altitude Reporting Facility
EDT Latitude Longitude Course Direction KTS MPH feet Rate Location/Type
07:16PM 37.3297 -93.6239 283° West 282 325 6,000  Level Kansas City Center
07:17PM 37.3453 -93.7369 280° West 276 318 6,000  Level Kansas City Center
07:18PM 37.3611 -93.8356 281° West 281 323 6,000 660 Level Kansas City Center
07:19PM 37.3105 -93.8021 283° West  Level FlightAware Approximate
07:19PM 37.3764 -93.9342 281° West 285 328 7,400  Level Kansas City Center
07:20PM 37.3260 -93.8859 283° West  Level FlightAware Approximate
07:20PM 37.3936 -94.0331 282° West 287 330 8,900  Level Kansas City Center
07:21PM 37.3414 -93.9698 283° West  Level FlightAware Approximate
07:21PM 37.4083 -94.1367 280° West 290 334 10,000  Level Kansas City Center
07:22PM 37.4250 -94.2472 281° West 311 358 10,000  Level Kansas City Center
07:23PM 37.4425 -94.3611 281° West 326 375 10,000  Level Kansas City Center
07:24PM 37.4650 -94.5000 282° West 335 386 10,000  Level Kansas City Center
07:25PM 37.4822 -94.6131 281° West 332 382 10,000  Level Kansas City Center
07:26PM 37.4989 -94.7242 281° West 327 376 10,000  Level Kansas City Center
07:27PM 37.5156 -94.8378 281° West 329 379 10,000  Level Kansas City Center
07:28PM 37.5328 -94.9494 281° West 327 376 10,000  Level Kansas City Center
07:30PM 37.5494 -95.0614 281° West 326 375 10,000  Level Kansas City Center
07:31PM 37.5689 -95.1983 280° West 330 380 10,000  Level Kansas City Center
07:32PM 37.5858 -95.3111 281° West 329 379 10,000  Level Kansas City Center
07:33PM 37.6017 -95.4242 280° West 328 377 10,000  Level Kansas City Center
07:34PM 37.6181 -95.5386 280° West 331 381 10,000  Level Kansas City Center
07:35PM 37.6267 -95.6533 275° West 331 381 10,000  Level Kansas City Center
07:36PM 37.6300 -95.7725 272° West 336 387 10,000  Level Kansas City Center
07:37PM 37.6308 -95.9172 270° West 343 395 10,000  Level Kansas City Center
07:38PM 37.6331 -96.0336 271° West 337 388 10,000  Level Kansas City Center
07:39PM 37.6350 -96.1508 271° West 336 387 10,000  Level Kansas City Center
07:40PM 37.6364 -96.2681 271° West 335 386 10,000  Level Kansas City Center
07:41PM 37.6389 -96.3842 272° West 333 383 10,000  Level Kansas City Center
07:42PM 37.6406 -96.5178 271° West 336 387 10,000  Level Kansas City Center
07:42PM 37.6414 -96.5444 272° West 336 387 10,000  Level Kansas City Center
07:43PM 37.6417 -96.6081 270° West 338 389 10,000  Level Kansas City Center
07:43PM 37.6406 -96.6361 267° West 338 389 10,000  Level Kansas City Center
07:44PM 37.6436 -96.7267 272° West 340 391 10,000  Level Kansas City Center
07:44PM 37.6433 -96.7553 269° West 339 390 10,000  Level Kansas City Center
07:45PM 37.6431 -96.8458 270° West 340 391 10,000  Level Kansas City Center
07:45PM 37.6464 -96.8733 279° West 339 390 10,000 -840 Level Kansas City Center
07:46PM 37.6464 -96.9589 270° West 321 369 9,200 -1,380 Descending Kansas City Center
07:46PM 37.6458 -96.9833 268° West 317 365 8,600 -2,580 Descending Kansas City Center
07:47PM 37.6133 -97.0489 238° Southwest 277 319 6,600 -2,460 Descending Kansas City Center
07:47PM 37.6044 -97.0675 239° Southwest 284 327 6,100 -2,640 Descending Kansas City Center
07:48PM 37.5906 -97.1344 255° West 265 305 4,000 -2,340 Descending Kansas City Center
07:48PM 37.5947 -97.1572 283° West 273 314 3,700 -1,020 Descending Kansas City Center
07:49PM 37.6036 -97.2247 279° West 234 269 3,000 -720 Descending Kansas City Center
07:49PM 37.6097 -97.2517 286° West 245 282 3,000  Level Kansas City Center
07:50PM 37.5950 -97.2869 242° Southwest 182 209 3,000  Level Kansas City Center
07:50PM 37.5825 -97.3044 228° Southwest 211 243 3,000  Level Kansas City Center
07:51PM 37.5669 -97.3414 242° Southwest 191 220 3,000  Level Kansas City Center
07:51PM 37.5653 -97.3689 266° West 206 237 3,000 -300 Level Kansas City Center
07:52PM 37.5694 -97.4097 277° West 191 220 2,700 -540 Descending Kansas City Center
07:52PM 37.5775 -97.4297 297° West 192 221 2,500 -600 Descending Kansas City Center
07:53PM 37.6019 -97.4417 339° North 147 169 2,100 -720 Descending Kansas City Center
07:53PM 37.6158 -97.4389 North 159 183 1,800 -660 Descending Kansas City Center
07:54PM 37.6364 -97.4283 22° Northeast 111 128 1,400 -240 Descending Kansas City Center
07:54PM 37.6528 -97.4236 13° North 144 166 1,600 480 Climbing Kansas City Center
07:56PM 37.6499 -97.4331 270° West  Level Estimated